Time;durP1;ratioP1;P1;durP2;ratioP2;P2;SDS_P1;SDS_P2;PMS_P1;PMS_P2;Temp;Humidity;BMP_temperature;BMP_pressure;BME280_temperature;BME280_humidity;BME280_pressure;Samples;Min_cycle;Max_cycle;Signal;HPM_P1;HPM_P2
2021/03/18 00:04:27;;;;;;;24.90;12.48;;;;;;;0.74;100.00;94030.75;10453047;28;20725;-77
2021/03/18 00:09:29;;;;;;;21.45;10.70;;;;;;;0.86;100.00;94038.69;10454154;28;20071;-77
2021/03/18 00:14:29;;;;;;;20.60;11.82;;;;;;;0.92;100.00;94047.56;10451620;28;20025;-77
2021/03/18 00:19:29;;;;;;;20.57;11.10;;;;;;;1.00;100.00;94034.78;10452015;28;20033;-76
2021/03/18 00:24:30;;;;;;;18.87;10.07;;;;;;;0.87;100.00;94044.81;10450225;28;20032;-77
2021/03/18 00:29:30;;;;;;;21.60;11.10;;;;;;;0.95;100.00;94036.50;10451206;28;20024;-77
2021/03/18 00:34:30;;;;;;;18.30;10.77;;;;;;;0.95;100.00;94041.78;10445927;28;20283;-77
2021/03/18 00:39:31;;;;;;;20.97;11.30;;;;;;;0.85;100.00;94035.25;10447236;28;20287;-77
2021/03/18 00:44:31;;;;;;;20.00;12.02;;;;;;;0.95;100.00;94036.50;10445673;28;20275;-77
2021/03/18 00:49:32;;;;;;;21.67;11.63;;;;;;;1.02;100.00;94026.63;10448867;28;20039;-77
2021/03/18 00:54:32;;;;;;;21.58;10.52;;;;;;;0.98;100.00;94036.84;10449415;28;20041;-77
2021/03/18 00:59:33;;;;;;;19.77;11.47;;;;;;;1.10;100.00;94036.03;10451617;28;20031;-77
2021/03/18 01:04:33;;;;;;;22.67;11.20;;;;;;;1.07;100.00;94026.72;10450924;28;20286;-76
2021/03/18 01:09:33;;;;;;;20.30;10.82;;;;;;;1.05;100.00;94030.63;10449787;28;20035;-76
2021/03/18 01:14:34;;;;;;;21.67;12.10;;;;;;;0.90;100.00;94031.13;10449339;28;20037;-76
2021/03/18 01:19:34;;;;;;;22.25;12.07;;;;;;;0.97;100.00;94029.94;10446287;28;20025;-75
2021/03/18 01:24:35;;;;;;;21.53;11.63;;;;;;;0.99;100.00;94037.66;10447314;28;20039;-77
2021/03/18 01:29:35;;;;;;;22.03;11.53;;;;;;;0.97;100.00;94042.38;10449089;28;20279;-76
2021/03/18 01:34:35;;;;;;;23.33;13.30;;;;;;;1.10;100.00;94034.19;10450560;28;20116;-76
2021/03/18 01:39:36;;;;;;;29.63;13.40;;;;;;;1.07;100.00;94032.00;10450666;28;20040;-77
2021/03/18 01:44:36;;;;;;;25.40;11.27;;;;;;;0.98;100.00;94036.84;10449357;28;20021;-76
2021/03/18 01:49:36;;;;;;;25.27;12.47;;;;;;;1.03;100.00;94041.44;10449045;28;20025;-76
2021/03/18 01:54:37;;;;;;;20.70;11.30;;;;;;;0.97;100.00;94040.53;10450266;28;20028;-76
2021/03/18 01:59:37;;;;;;;20.40;11.70;;;;;;;0.99;100.00;94042.94;10451276;28;20129;-76
2021/03/18 02:04:38;;;;;;;23.97;12.03;;;;;;;1.00;100.00;94039.28;10456625;28;20016;-76
2021/03/18 02:09:38;;;;;;;19.10;11.55;;;;;;;1.06;100.00;94048.94;10458402;28;20350;-77
2021/03/18 02:14:39;;;;;;;22.48;11.30;;;;;;;1.08;100.00;94054.00;10459804;28;20095;-77
2021/03/18 02:20:07;;;;;;;16.85;10.23;;;;;;;0.92;100.00;94066.06;10466871;28;20107;-77
2021/03/18 02:25:16;;;;;;;20.87;11.53;;;;;;;0.66;100.00;94071.56;10501191;28;20028;-77
2021/03/18 02:30:22;;;;;;;19.90;11.38;;;;;;;0.71;100.00;94068.22;10500429;28;20479;-76
2021/03/18 02:35:27;;;;;;;18.33;11.43;;;;;;;0.61;100.00;94073.28;10497479;28;20032;-76
2021/03/18 02:40:32;;;;;;;21.15;11.05;;;;;;;0.51;100.00;94061.41;10497586;28;20081;-76
2021/03/18 02:45:36;;;;;;;17.92;9.57;;;;;;;0.53;100.00;94066.50;10497825;28;20044;-76
2021/03/18 02:50:38;;;;;;;16.90;10.10;;;;;;;0.57;100.00;94070.28;10497656;28;20113;-75
2021/03/18 02:55:43;;;;;;;18.27;10.25;;;;;;;0.58;100.00;94066.59;10497274;28;20033;-76
2021/03/18 03:00:45;;;;;;;17.27;10.88;;;;;;;0.69;100.00;94070.31;10510969;28;20373;-76
2021/03/18 03:05:48;;;;;;;20.15;11.57;;;;;;;0.85;100.00;94066.16;10497377;28;20167;-76
2021/03/18 03:10:52;;;;;;;18.40;10.20;;;;;;;1.01;100.00;94072.63;10494339;28;20115;-75
2021/03/18 03:15:55;;;;;;;20.77;11.73;;;;;;;1.05;100.00;94070.31;10494260;28;20028;-76
2021/03/18 03:20:59;;;;;;;19.40;9.93;;;;;;;0.98;100.00;94065.97;10496322;28;20487;-76
2021/03/18 03:26:01;;;;;;;17.20;9.75;;;;;;;1.10;100.00;94071.25;10497031;28;20030;-77
2021/03/18 03:31:03;;;;;;;17.42;9.13;;;;;;;0.98;100.00;94081.03;10495555;28;20052;-76
2021/03/18 03:36:03;;;;;;;16.98;9.80;;;;;;;0.54;100.00;94091.09;10497550;28;20029;-76
2021/03/18 03:41:07;;;;;;;16.27;10.15;;;;;;;0.31;100.00;94097.94;10496620;28;20028;-76
2021/03/18 03:46:07;;;;;;;20.67;11.32;;;;;;;0.37;100.00;94099.66;10496938;28;20419;-76
2021/03/18 03:51:08;;;;;;;20.40;11.10;;;;;;;0.22;100.00;94091.34;10496971;28;20048;-76
2021/03/18 03:56:29;;;;;;;20.60;12.32;;;;;;;0.24;100.00;94098.00;10496855;28;20029;-77
2021/03/18 04:01:37;;;;;;;21.35;12.10;;;;;;;0.28;100.00;94095.72;10496546;28;20028;-77
2021/03/18 04:06:40;;;;;;;17.42;11.00;;;;;;;0.36;100.00;94095.41;10495680;28;20111;-76
2021/03/18 04:11:42;;;;;;;24.10;10.90;;;;;;;0.30;100.00;94098.94;10494856;28;20502;-75
2021/03/18 04:16:44;;;;;;;20.20;11.85;;;;;;;0.27;100.00;94096.75;10495048;28;20094;-77
2021/03/18 04:21:47;;;;;;;20.52;10.52;;;;;;;0.25;100.00;94097.00;10493934;28;20475;-75
2021/03/18 04:26:48;;;;;;;19.52;11.00;;;;;;;0.36;100.00;94099.88;10492388;28;20044;-76
2021/03/18 04:31:50;;;;;;;19.08;11.32;;;;;;;0.27;100.00;94104.69;10492831;28;20515;-76
2021/03/18 04:36:51;;;;;;;20.25;10.73;;;;;;;0.40;100.00;94112.41;10492615;28;20115;-76
2021/03/18 04:41:52;;;;;;;18.73;11.32;;;;;;;0.51;100.00;94116.94;10492568;28;20032;-76
2021/03/18 04:46:54;;;;;;;17.80;10.27;;;;;;;0.47;100.00;94113.13;10491752;28;20032;-76
2021/03/18 04:51:55;;;;;;;14.75;9.82;;;;;;;0.44;100.00;94116.22;10491188;28;20141;-76
2021/03/18 04:56:57;;;;;;;15.35;9.95;;;;;;;0.37;100.00;94118.16;10490821;28;20034;-77
2021/03/18 05:01:59;;;;;;;16.92;8.85;;;;;;;0.47;100.00;94121.06;10491690;28;20688;-75
2021/03/18 05:07:00;;;;;;;18.55;10.50;;;;;;;0.73;100.00;94137.59;10490634;28;20036;-76
2021/03/18 05:12:02;;;;;;;17.75;10.85;;;;;;;0.92;100.00;94143.63;10490501;28;20028;-75
2021/03/18 05:17:03;;;;;;;17.50;9.63;;;;;;;0.57;100.00;94151.44;10488834;28;20029;-78
2021/03/18 05:22:04;;;;;;;15.00;8.63;;;;;;;0.58;100.00;94153.06;10489086;28;20450;-78
2021/03/18 05:27:05;;;;;;;15.48;8.57;;;;;;;0.46;100.00;94151.19;10446483;28;20067;-76
2021/03/18 05:32:05;;;;;;;19.27;10.95;;;;;;;0.44;100.00;94157.72;10484463;28;20094;-77
2021/03/18 05:37:06;;;;;;;21.75;10.30;;;;;;;0.65;100.00;94164.34;10455201;28;20029;-78
2021/03/18 05:42:06;;;;;;;18.20;10.75;;;;;;;0.77;100.00;94161.75;10442956;28;20028;-78
2021/03/18 05:47:09;;;;;;;17.45;9.90;;;;;;;0.68;100.00;94177.13;10469791;28;20070;-77
2021/03/18 05:52:11;;;;;;;19.10;11.40;;;;;;;0.93;100.00;94181.44;10485987;28;20049;-78
2021/03/18 05:57:12;;;;;;;21.45;11.70;;;;;;;1.31;100.00;94182.88;10485815;28;20032;-78
2021/03/18 06:02:14;;;;;;;17.67;9.52;;;;;;;1.49;100.00;94180.16;10484272;28;20028;-73
2021/03/18 06:07:14;;;;;;;15.82;8.25;;;;;;;1.56;100.00;94187.16;10486294;28;20324;-76
2021/03/18 06:12:14;;;;;;;14.63;8.07;;;;;;;1.23;100.00;94191.16;10486587;28;20094;-76
2021/03/18 06:17:16;;;;;;;13.88;7.47;;;;;;;1.02;100.00;94185.38;10485815;28;20228;-76
2021/03/18 06:22:32;;;;;;;17.85;7.90;;;;;;;1.01;100.00;94199.66;10485741;28;20063;-76
2021/03/18 06:27:32;;;;;;;12.65;7.57;;;;;;;1.02;100.00;94201.25;10486380;28;20073;-76
2021/03/18 06:32:32;;;;;;;11.73;7.45;;;;;;;1.24;100.00;94206.00;10485802;28;20361;-76
2021/03/18 06:37:37;;;;;;;12.88;8.30;;;;;;;1.57;100.00;94207.31;10486281;28;20198;-76
2021/03/18 06:42:41;;;;;;;12.43;8.18;;;;;;;2.28;100.00;94207.25;10485718;28;20048;-76
2021/03/18 06:47:46;;;;;;;17.17;9.05;;;;;;;2.96;100.00;94215.41;10486737;28;20113;-76
2021/03/18 06:52:47;;;;;;;12.88;7.93;;;;;;;3.30;100.00;94218.16;10468087;28;20059;-76
2021/03/18 06:57:48;;;;;;;10.98;6.35;;;;;;;3.15;100.00;94210.72;10450026;28;20040;-76
2021/03/18 07:02:48;;;;;;;9.40;6.20;;;;;;;3.59;100.00;94222.34;10450157;28;20295;-76
2021/03/18 07:07:50;;;;;;;8.63;5.30;;;;;;;3.33;100.00;94222.97;10452222;28;20358;-76
2021/03/18 07:12:51;;;;;;;9.40;6.07;;;;;;;3.33;100.00;94218.44;10451527;28;20025;-76
2021/03/18 07:18:01;;;;;;;16.90;6.10;;;;;;;4.25;100.00;94221.66;10451651;28;20027;-76
2021/03/18 07:23:12;;;;;;;9.20;5.45;;;;;;;4.38;100.00;94217.88;10452737;28;20033;-76
2021/03/18 07:28:14;;;;;;;7.43;5.32;;;;;;;4.01;100.00;94220.28;10482483;28;20464;-73
2021/03/18 07:33:15;;;;;;;6.68;4.68;;;;;;;3.80;100.00;94227.97;10454468;28;20025;-72
2021/03/18 07:38:16;;;;;;;8.27;5.57;;;;;;;3.90;100.00;94222.78;10477930;28;20029;-76
2021/03/18 07:43:18;;;;;;;8.52;6.00;;;;;;;4.32;100.00;94226.03;10492285;28;20028;-76
2021/03/18 07:48:23;;;;;;;9.73;5.75;;;;;;;4.63;100.00;94224.53;10488323;28;20103;-76
2021/03/18 07:53:24;;;;;;;7.53;4.80;;;;;;;4.26;100.00;94227.81;10488118;28;20044;-75
2021/03/18 07:58:41;;;;;;;11.18;5.95;;;;;;;4.49;100.00;94233.94;10486784;28;20106;-76
2021/03/18 08:03:51;;;;;;;8.30;4.50;;;;;;;3.82;100.00;94236.50;10497052;28;20495;-75
2021/03/18 08:08:54;;;;;;;10.30;6.32;;;;;;;4.46;100.00;94243.22;10486350;28;20143;-75
2021/03/18 08:14:08;;;;;;;10.20;6.32;;;;;;;4.51;100.00;94240.63;10488801;28;20028;-76
2021/03/18 08:19:11;;;;;;;10.52;5.00;;;;;;;4.55;100.00;94236.44;10482197;28;20050;-76
2021/03/18 08:24:30;;;;;;;9.25;5.00;;;;;;;4.63;100.00;94243.16;10489411;28;20032;-76
2021/03/18 08:29:43;;;;;;;11.50;5.03;;;;;;;3.38;100.00;94257.59;10482358;28;20033;-76
2021/03/18 08:34:50;;;;;;;9.55;4.80;;;;;;;4.34;100.00;94243.34;10465404;28;20029;-76
2021/03/18 08:39:50;;;;;;;8.43;5.55;;;;;;;5.50;100.00;94251.28;10459442;28;20379;-75
2021/03/18 08:44:51;;;;;;;8.45;4.65;;;;;;;4.28;100.00;94257.63;10469679;28;20039;-75
2021/03/18 08:49:51;;;;;;;8.05;4.93;;;;;;;4.49;100.00;94250.69;10473999;28;20082;-75
2021/03/18 08:54:53;;;;;;;11.50;6.23;;;;;;;4.36;100.00;94253.75;10480694;28;20107;-75
2021/03/18 09:00:07;;;;;;;7.88;4.40;;;;;;;4.61;100.00;94256.72;10489725;28;20278;-76
2021/03/18 09:05:18;;;;;;;12.40;5.85;;;;;;;5.04;100.00;94256.16;10491027;28;20051;-76
2021/03/18 09:10:24;;;;;;;9.18;5.18;;;;;;;6.05;100.00;94243.19;10488947;28;20036;-76
2021/03/18 09:15:45;;;;;;;11.00;5.43;;;;;;;6.21;100.00;94252.91;10468921;28;20041;-76
2021/03/18 09:20:56;;;;;;;10.30;5.88;;;;;;;6.05;100.00;94248.53;10487214;28;20194;-76
2021/03/18 09:26:03;;;;;;;6.47;4.20;;;;;;;5.43;98.55;94256.81;10487895;28;20404;-76
2021/03/18 09:31:04;;;;;;;7.70;5.15;;;;;;;4.73;100.00;94269.09;10475985;28;20036;-76
2021/03/18 09:36:14;;;;;;;9.43;5.10;;;;;;;4.73;100.00;94259.28;10446537;28;20021;-76
2021/03/18 09:41:22;;;;;;;7.75;3.67;;;;;;;4.66;100.00;94266.63;10447028;28;20033;-76
2021/03/18 09:46:23;;;;;;;8.75;4.40;;;;;;;3.77;100.00;94270.97;10447326;28;20375;-75
2021/03/18 09:51:24;;;;;;;8.75;4.85;;;;;;;3.30;100.00;94290.66;10482930;28;20044;-76
2021/03/18 09:56:25;;;;;;;10.20;5.82;;;;;;;3.89;100.00;94300.13;10479421;28;20036;-76
2021/03/18 10:01:25;;;;;;;7.90;4.90;;;;;;;6.22;100.00;94278.50;10476134;28;20032;-76
2021/03/18 10:06:29;;;;;;;7.97;4.68;;;;;;;6.69;100.00;94286.81;10485051;28;20025;-77
2021/03/18 10:11:29;;;;;;;8.13;4.65;;;;;;;6.64;100.00;94298.25;10482023;28;20027;-76
2021/03/18 10:16:30;;;;;;;5.20;3.37;;;;;;;6.11;100.00;94312.34;10486592;28;20024;-76
2021/03/18 10:21:33;;;;;;;4.88;3.72;;;;;;;5.84;100.00;94304.34;10479151;28;21013;-76
2021/03/18 10:26:33;;;;;;;5.95;4.35;;;;;;;4.26;100.00;94327.03;10491857;28;20059;-76
2021/03/18 10:31:36;;;;;;;7.38;4.32;;;;;;;3.95;100.00;94315.13;10494493;28;20023;-76
2021/03/18 10:36:41;;;;;;;9.10;5.00;;;;;;;4.00;100.00;94317.06;10491141;28;20032;-76
2021/03/18 10:41:52;;;;;;;5.70;3.45;;;;;;;5.04;100.00;94310.22;10482004;28;20025;-76
2021/03/18 10:46:52;;;;;;;6.75;3.67;;;;;;;5.51;100.00;94313.38;10476637;28;20036;-77
2021/03/18 10:51:53;;;;;;;6.50;4.13;;;;;;;5.99;100.00;94311.72;10481465;28;20446;-76
2021/03/18 10:57:02;;;;;;;9.20;4.75;;;;;;;5.41;100.00;94319.41;10457763;28;20295;-77
2021/03/18 11:02:03;;;;;;;;;;;;;;;5.06;100.00;94317.97;10474094;28;20043;-75
2021/03/18 11:07:08;;;;;;;7.28;4.40;;;;;;;4.53;100.00;94317.56;10451118;28;19913;-75
2021/03/18 11:12:08;;;;;;;7.40;4.75;;;;;;;5.96;100.00;94306.84;10450232;28;20158;-77
2021/03/18 11:17:09;;;;;;;6.47;3.58;;;;;;;6.82;98.56;94292.47;10458394;28;20918;-76
2021/03/18 11:22:09;;;;;;;4.83;3.37;;;;;;;7.49;92.53;94302.56;10458440;28;20170;-76
2021/03/18 11:27:09;;;;;;;7.20;3.83;;;;;;;6.72;77.96;94302.31;10492363;28;20027;-76
2021/03/18 11:32:20;;;;;;;6.87;2.90;;;;;;;4.30;100.00;94295.44;10493177;28;20025;-76
2021/03/18 11:37:20;;;;;;;5.90;4.60;;;;;;;4.79;100.00;94300.06;10492019;28;20032;-76
2021/03/18 11:42:21;;;;;;;5.35;4.35;;;;;;;5.45;100.00;94299.97;10492360;28;20036;-77
2021/03/18 11:47:21;;;;;;;6.57;3.83;;;;;;;5.09;100.00;94304.13;10491070;28;20491;-76
2021/03/18 11:52:22;;;;;;;7.17;4.70;;;;;;;5.01;100.00;94299.25;10492163;28;20443;-77
2021/03/18 11:57:22;;;;;;;13.43;5.20;;;;;;;5.51;100.00;94290.19;10491557;28;20693;-77
2021/03/18 12:02:22;;;;;;;12.23;5.40;;;;;;;5.66;100.00;94300.19;10490921;28;20274;-77
2021/03/18 12:07:23;;;;;;;7.37;5.37;;;;;;;5.90;100.00;94300.69;10492414;28;20031;-77
2021/03/18 12:12:23;;;;;;;11.87;6.23;;;;;;;6.51;100.00;94291.50;10493152;28;20418;-77
2021/03/18 12:17:23;;;;;;;9.48;5.60;;;;;;;6.98;100.00;94279.97;10491898;28;20806;-77
2021/03/18 12:22:24;;;;;;;7.17;5.13;;;;;;;6.72;95.36;94291.63;10491490;28;20032;-77
2021/03/18 12:27:25;;;;;;;9.90;4.38;;;;;;;6.27;88.76;94299.91;10492142;28;20796;-77
2021/03/18 12:32:25;;;;;;;9.25;5.53;;;;;;;5.94;88.14;94304.41;10492010;28;20146;-76
2021/03/18 12:37:26;;;;;;;11.38;6.20;;;;;;;5.08;99.34;94291.88;10491139;28;20153;-76
2021/03/18 12:42:27;;;;;;;9.10;5.30;;;;;;;5.65;100.00;94294.06;10491482;28;20022;-76
2021/03/18 12:47:27;;;;;;;9.38;5.10;;;;;;;5.85;93.93;94297.97;10491074;28;20277;-77
2021/03/18 12:52:27;;;;;;;6.93;4.60;;;;;;;4.72;99.27;94291.47;10490370;28;20053;-76
2021/03/18 12:57:28;;;;;;;14.57;6.33;;;;;;;5.17;99.32;94313.56;10491081;28;20295;-77
2021/03/18 13:02:28;;;;;;;8.33;4.80;;;;;;;4.59;97.75;94322.72;10490114;28;20278;-76
2021/03/18 13:07:28;;;;;;;10.70;5.43;;;;;;;4.33;100.00;94316.22;10490255;28;20020;-76
2021/03/18 13:12:29;;;;;;;7.63;4.60;;;;;;;4.37;100.00;94321.88;10490174;28;20025;-76
2021/03/18 13:17:29;;;;;;;13.93;7.97;;;;;;;4.62;100.00;94330.19;10489576;28;20034;-76
2021/03/18 13:22:29;;;;;;;9.33;6.63;;;;;;;4.83;100.00;94332.31;10489678;28;20752;-77
2021/03/18 13:27:30;;;;;;;10.30;6.57;;;;;;;4.89;100.00;94334.00;10489184;28;20524;-76
2021/03/18 13:32:30;;;;;;;9.38;6.63;;;;;;;5.04;100.00;94347.50;10490022;28;20116;-77
2021/03/18 13:37:31;;;;;;;12.98;6.38;;;;;;;4.94;100.00;94345.53;10489378;28;20035;-76
2021/03/18 13:42:32;;;;;;;14.00;7.87;;;;;;;4.65;100.00;94346.72;10488087;28;20025;-76
2021/03/18 13:47:32;;;;;;;12.20;7.43;;;;;;;4.50;100.00;94348.13;10488945;28;20266;-76
2021/03/18 13:52:33;;;;;;;14.27;9.65;;;;;;;4.44;100.00;94346.44;10488972;28;20048;-76
2021/03/18 13:57:34;;;;;;;11.57;7.60;;;;;;;4.76;100.00;94330.66;10491473;28;20467;-77
2021/03/18 14:02:35;;;;;;;13.40;8.65;;;;;;;5.28;100.00;94337.38;10502425;28;20024;-77
2021/03/18 14:07:35;;;;;;;14.40;7.17;;;;;;;5.71;100.00;94334.91;10502099;28;20795;-77
2021/03/18 14:12:38;;;;;;;16.85;8.18;;;;;;;6.31;98.20;94330.34;10499590;28;20270;-77
2021/03/18 14:17:40;;;;;;;14.38;7.63;;;;;;;6.69;85.55;94333.00;10500211;28;20028;-77
2021/03/18 14:22:41;;;;;;;11.32;7.50;;;;;;;5.91;89.98;94328.94;10479182;28;20672;-77
2021/03/18 14:27:42;;;;;;;17.00;8.23;;;;;;;5.82;89.52;94333.13;10460215;28;20028;-76
2021/03/18 14:32:44;;;;;;;12.15;7.95;;;;;;;5.42;96.48;94337.81;10477572;28;20029;-77
2021/03/18 14:37:45;;;;;;;14.32;8.25;;;;;;;5.03;100.00;94337.91;10498589;28;20131;-77
2021/03/18 14:42:45;;;;;;;13.43;9.13;;;;;;;4.96;100.00;94339.94;10460346;28;20027;-77
2021/03/18 14:47:46;;;;;;;15.27;8.73;;;;;;;4.68;97.95;94339.06;10480390;28;20027;-77
2021/03/18 14:52:46;;;;;;;14.02;8.18;;;;;;;4.34;100.00;94332.97;10501057;28;20045;-76
2021/03/18 14:57:46;;;;;;;23.50;9.88;;;;;;;4.04;100.00;94334.13;10501107;28;20032;-77
2021/03/18 15:02:47;;;;;;;18.73;9.60;;;;;;;3.74;100.00;94340.53;10500220;28;20099;-76
2021/03/18 15:07:47;;;;;;;16.47;10.17;;;;;;;3.76;100.00;94328.63;10500914;28;20020;-77
2021/03/18 15:12:48;;;;;;;22.20;12.33;;;;;;;3.75;100.00;94335.00;10493742;28;20275;-78
2021/03/18 15:17:48;;;;;;;19.13;11.25;;;;;;;3.51;100.00;94341.50;10467586;28;20064;-77
2021/03/18 15:22:48;;;;;;;18.90;9.97;;;;;;;3.28;100.00;94339.72;10468774;28;20103;-77
2021/03/18 15:27:49;;;;;;;19.55;10.73;;;;;;;3.07;100.00;94342.81;10476444;28;20263;-77
2021/03/18 15:32:50;;;;;;;21.67;11.98;;;;;;;2.93;100.00;94343.31;10455032;28;20423;-76
2021/03/18 15:37:51;;;;;;;23.92;13.70;;;;;;;2.88;100.00;94339.50;10453554;28;20031;-77
2021/03/18 15:42:51;;;;;;;24.03;14.10;;;;;;;2.90;100.00;94345.41;10449464;28;20021;-77
2021/03/18 15:47:53;;;;;;;25.10;13.82;;;;;;;2.67;100.00;94335.63;10464913;28;20275;-77
2021/03/18 15:52:53;;;;;;;32.88;15.27;;;;;;;2.59;100.00;94343.16;10478866;28;20044;-77
2021/03/18 15:57:56;;;;;;;25.40;14.30;;;;;;;2.50;100.00;94342.72;10493249;28;20024;-76
2021/03/18 16:02:57;;;;;;;24.35;13.65;;;;;;;2.39;100.00;94344.31;10491536;28;20024;-76
2021/03/18 16:08:00;;;;;;;26.83;13.75;;;;;;;2.44;100.00;94349.72;10478738;28;20411;-76
2021/03/18 16:13:01;;;;;;;24.83;14.10;;;;;;;2.46;100.00;94350.31;10469415;28;20029;-76
2021/03/18 16:18:04;;;;;;;27.42;13.77;;;;;;;2.35;100.00;94351.91;10450604;28;20025;-76
2021/03/18 16:23:11;;;;;;;31.67;14.20;;;;;;;2.36;100.00;94355.41;10462900;28;20056;-76
2021/03/18 16:28:14;;;;;;;30.77;15.53;;;;;;;2.33;100.00;94358.47;10449097;28;20103;-76
2021/03/18 16:33:17;;;;;;;23.48;12.82;;;;;;;2.33;100.00;94369.91;10484625;28;20090;-76
2021/03/18 16:38:19;;;;;;;27.17;14.85;;;;;;;2.06;100.00;94380.16;10489268;28;20024;-77
2021/03/18 16:43:20;;;;;;;23.65;13.80;;;;;;;1.82;100.00;94379.31;10490956;28;20447;-76
2021/03/18 16:48:21;;;;;;;32.92;15.25;;;;;;;1.73;100.00;94381.47;10471328;28;20029;-78
2021/03/18 16:53:21;;;;;;;29.33;14.02;;;;;;;1.69;100.00;94375.03;10448709;28;20446;-76
2021/03/18 16:58:22;;;;;;;29.45;16.42;;;;;;;1.72;100.00;94369.25;10457811;28;20089;-75
2021/03/18 17:03:23;;;;;;;25.92;15.00;;;;;;;1.65;100.00;94376.50;10449081;28;20025;-77
2021/03/18 17:08:23;;;;;;;33.05;17.88;;;;;;;1.52;100.00;94375.66;10448517;28;20028;-76
2021/03/18 17:13:26;;;;;;;34.05;17.30;;;;;;;1.58;100.00;94368.66;10448879;28;20033;-77
2021/03/18 17:18:28;;;;;;;31.80;16.70;;;;;;;1.46;100.00;94371.25;10450910;28;20070;-77
2021/03/18 17:23:28;;;;;;;45.55;20.23;;;;;;;1.33;100.00;94369.59;10489694;28;20133;-76
2021/03/18 17:28:28;;;;;;;38.17;18.80;;;;;;;1.37;100.00;94367.31;10491035;28;20016;-77
2021/03/18 17:33:29;;;;;;;41.37;18.13;;;;;;;1.32;100.00;94362.66;10491195;28;20033;-77
2021/03/18 17:38:30;;;;;;;33.67;19.23;;;;;;;1.18;100.00;94375.28;10478836;28;20391;-77
2021/03/18 17:43:32;;;;;;;34.13;17.77;;;;;;;0.99;100.00;94371.88;10490407;28;20032;-78
2021/03/18 17:48:32;;;;;;;30.98;16.08;;;;;;;1.08;100.00;94369.72;10487952;28;20028;-76
2021/03/18 17:53:36;;;;;;;37.80;17.02;;;;;;;0.84;100.00;94366.94;10480956;28;20045;-76
2021/03/18 17:58:36;;;;;;;40.03;16.60;;;;;;;0.80;100.00;94372.91;10448126;28;20736;-77
2021/03/18 18:03:38;;;;;;;37.53;17.57;;;;;;;0.53;100.00;94377.66;10487146;28;20027;-76
2021/03/18 18:08:39;;;;;;;34.38;18.42;;;;;;;0.39;100.00;94375.16;10487575;28;20681;-76
2021/03/18 18:13:39;;;;;;;35.03;17.85;;;;;;;0.33;100.00;94384.75;10473010;28;20048;-76
2021/03/18 18:18:40;;;;;;;38.92;19.38;;;;;;;0.24;100.00;94379.97;10464415;28;20085;-82
2021/03/18 18:23:40;;;;;;;39.95;20.85;;;;;;;0.27;100.00;94390.13;10485123;28;20473;-75
2021/03/18 18:28:41;;;;;;;40.73;22.43;;;;;;;0.40;100.00;94389.19;10482301;28;20021;-75
2021/03/18 18:33:42;;;;;;;43.53;22.50;;;;;;;0.41;100.00;94396.09;10478112;28;20366;-75
2021/03/18 18:38:43;;;;;;;51.03;24.02;;;;;;;0.30;100.00;94395.75;10479586;28;20025;-75
2021/03/18 18:43:43;;;;;;;42.58;21.75;;;;;;;0.46;100.00;94397.06;10480136;28;20032;-75
2021/03/18 18:48:46;;;;;;;43.20;20.85;;;;;;;0.37;100.00;94400.19;10483249;28;20020;-77
2021/03/18 18:53:47;;;;;;;38.10;20.30;;;;;;;0.30;100.00;94405.53;10487532;28;20063;-76
2021/03/18 18:58:48;;;;;;;34.95;18.65;;;;;;;0.21;100.00;94407.66;10484209;28;20055;-75
2021/03/18 19:03:48;;;;;;;31.90;18.13;;;;;;;0.21;100.00;94407.66;10478297;28;20087;-75
2021/03/18 19:08:52;;;;;;;36.10;18.77;;;;;;;0.33;100.00;94407.75;10487205;28;20020;-76
2021/03/18 19:13:52;;;;;;;33.28;18.77;;;;;;;0.36;100.00;94425.81;10489075;28;20270;-76
2021/03/18 19:18:52;;;;;;;37.43;18.40;;;;;;;0.36;100.00;94425.81;10467247;28;20059;-75
2021/03/18 19:23:55;;;;;;;37.70;20.37;;;;;;;0.36;100.00;94428.44;10459194;28;20473;-75
2021/03/18 19:28:55;;;;;;;35.05;18.85;;;;;;;0.36;100.00;94441.66;10488773;28;20844;-76
2021/03/18 19:33:55;;;;;;;39.80;19.40;;;;;;;0.40;100.00;94452.63;10489033;28;20032;-76
2021/03/18 19:38:56;;;;;;;32.15;17.40;;;;;;;0.24;100.00;94453.97;10487760;28;20332;-76
2021/03/18 19:43:57;;;;;;;37.25;17.38;;;;;;;0.25;100.00;94459.06;10487849;28;20082;-76
2021/03/18 19:48:57;;;;;;;29.08;15.50;;;;;;;-0.03;100.00;94475.28;10467368;28;20035;-76
2021/03/18 19:53:57;;;;;;;34.03;16.58;;;;;;;-0.12;100.00;94468.66;10458391;28;20049;-76
2021/03/18 19:58:58;;;;;;;33.97;17.23;;;;;;;-0.18;100.00;94468.47;10482233;28;20032;-75
2021/03/18 20:03:58;;;;;;;37.13;17.03;;;;;;;-0.11;100.00;94467.63;10457690;28;20033;-75
2021/03/18 20:08:59;;;;;;;42.15;17.98;;;;;;;-0.02;100.00;94463.72;10462849;28;20303;-76
2021/03/18 20:13:59;;;;;;;35.65;17.73;;;;;;;0.02;100.00;94456.19;10444893;28;20541;-75
2021/03/18 20:18:59;;;;;;;35.93;16.90;;;;;;;-0.02;100.00;94466.34;10444935;28;20043;-75
2021/03/18 20:24:00;;;;;;;36.27;16.70;;;;;;;-0.34;100.00;94468.97;10444576;28;20040;-75
2021/03/18 20:29:01;;;;;;;42.30;19.33;;;;;;;-0.53;100.00;94463.59;10467772;28;20271;-75
2021/03/18 20:34:01;;;;;;;39.25;17.23;;;;;;;-0.32;100.00;94451.09;10444523;28;20998;-75
2021/03/18 20:39:04;;;;;;;42.95;16.35;;;;;;;-0.31;100.00;94463.28;10444915;28;20033;-75
2021/03/18 20:44:06;;;;;;;38.97;18.83;;;;;;;-0.46;100.00;94460.09;10444274;28;20025;-76
2021/03/18 20:49:06;;;;;;;36.13;17.38;;;;;;;-0.44;100.00;94458.09;10443777;28;20093;-75
2021/03/18 20:54:07;;;;;;;35.05;14.98;;;;;;;-0.25;100.00;94456.31;10443965;28;20053;-75
2021/03/18 20:59:07;;;;;;;39.83;17.17;;;;;;;-0.16;100.00;94455.06;10444261;28;20031;-75
2021/03/18 21:04:08;;;;;;;31.73;15.98;;;;;;;-0.14;100.00;94455.69;10442197;28;20079;-75
2021/03/18 21:09:08;;;;;;;33.92;16.23;;;;;;;-0.24;100.00;94450.84;10442978;28;20074;-75
2021/03/18 21:14:09;;;;;;;35.30;17.60;;;;;;;-0.13;100.00;94446.72;10480086;28;20475;-75
2021/03/18 21:19:09;;;;;;;44.53;17.95;;;;;;;-0.14;100.00;94447.75;10468752;28;20025;-76
2021/03/18 21:24:11;;;;;;;38.28;17.35;;;;;;;-0.07;100.00;94439.75;10452154;28;20114;-76
2021/03/18 21:29:11;;;;;;;35.72;17.90;;;;;;;-0.20;100.00;94448.59;10477282;28;20395;-78
2021/03/18 21:34:11;;;;;;;39.07;18.20;;;;;;;-0.32;100.00;94437.91;10451254;28;20024;-74
2021/03/18 21:39:12;;;;;;;34.28;16.98;;;;;;;-0.29;100.00;94434.00;10442703;28;20025;-77
2021/03/18 21:44:13;;;;;;;38.80;17.23;;;;;;;-0.42;100.00;94429.63;10442195;28;20132;-76
2021/03/18 21:49:14;;;;;;;37.63;18.90;;;;;;;-0.42;100.00;94426.97;10442957;28;20028;-77
2021/03/18 21:54:14;;;;;;;42.53;20.63;;;;;;;-0.58;100.00;94431.75;10442502;28;20523;-75
2021/03/18 21:59:14;;;;;;;39.28;19.38;;;;;;;-0.85;100.00;94431.06;10445027;28;20032;-77
2021/03/18 22:04:17;;;;;;;37.60;20.93;;;;;;;-0.76;100.00;94429.78;10443477;28;20502;-76
2021/03/18 22:09:17;;;;;;;42.05;20.42;;;;;;;-0.68;100.00;94415.56;10439221;28;20275;-76
2021/03/18 22:14:17;;;;;;;42.57;19.57;;;;;;;-0.70;100.00;94421.06;10440088;28;20099;-77
2021/03/18 22:19:18;;;;;;;38.40;20.33;;;;;;;-0.71;100.00;94421.25;10444275;28;20393;-76
2021/03/18 22:24:18;;;;;;;42.38;22.05;;;;;;;-0.63;100.00;94423.63;10450412;28;20033;-76
2021/03/18 22:29:19;;;;;;;48.47;21.10;;;;;;;-0.71;100.00;94416.78;10452880;28;20021;-76
2021/03/18 22:34:19;;;;;;;40.83;19.17;;;;;;;-0.62;100.00;94414.72;10452478;28;20036;-76
2021/03/18 22:39:21;;;;;;;43.30;20.27;;;;;;;-0.90;100.00;94418.50;10452140;28;20291;-76
2021/03/18 22:44:21;;;;;;;37.22;18.95;;;;;;;-0.92;100.00;94414.44;10451088;28;20662;-76
2021/03/18 22:49:22;;;;;;;43.33;19.97;;;;;;;-0.84;100.00;94434.50;10446516;28;20029;-75
2021/03/18 22:54:22;;;;;;;40.67;21.65;;;;;;;-0.85;100.00;94431.06;10447359;28;20136;-75
2021/03/18 22:59:23;;;;;;;42.70;21.50;;;;;;;-0.83;100.00;94436.13;10447823;28;20544;-75
2021/03/18 23:04:26;;;;;;;41.83;21.37;;;;;;;-0.89;100.00;94435.94;10447624;28;20123;-76